KCLK/CLK METAR and TAF weather

Enter ICAO airport designator
Station Type Date Time Source
KCLK METAR 2019/12/09 06:15 UTC NOAA

KCLK 090615Z AUTO 18003KT 10SM CLR 03/01 A2961 RMK AO2


Station Type Date Time Source
KCLK Decoded METAR 2019/12/09 06:15 UTC NOAA

Clinton, Clinton Regional Airport, OK, United States (KCLK) 35-32-17N 098-55-17W
Dec 09, 2019 - 01:15 AM EST / 2019.12.09 0615 UTC
Wind: from the S (180 degrees) at 3 MPH (3 KT):0
Visibility: 10 mile(s):0
Sky conditions: clear
Temperature: 37 F (3 C)
Dew Point: 33 F (1 C)
Relative Humidity: 86%
Pressure (altimeter): 29.61 in. Hg (1002 hPa)
ob: KCLK 090615Z AUTO 18003KT 10SM CLR 03/01 A2961 RMK AO2
cycle: 6

Station Type Date Time Source
KCLK TAF UTC NOAA

Error!

Example: see airport list